createdAt,value
2019-05-01T00:01:01.064Z,5.43
2019-05-01T00:03:40.892Z,6.03
2019-05-01T00:06:11.528Z,5.23
2019-05-01T00:08:40.587Z,5.47
2019-05-01T00:11:09.437Z,5.43
2019-05-01T00:13:38.374Z,5.70
2019-05-01T00:16:07.487Z,4.90
2019-05-01T00:18:36.267Z,5.70
2019-05-01T00:21:05.470Z,5.10
2019-05-01T00:23:34.235Z,4.90
2019-05-01T00:26:03.031Z,5.23
2019-05-01T00:28:32.013Z,5.63
2019-05-01T00:31:00.741Z,5.47
2019-05-01T00:33:29.747Z,5.77
2019-05-01T00:35:58.890Z,8.60
2019-05-01T00:38:27.706Z,10.40
2019-05-01T00:40:56.592Z,10.53
2019-05-01T00:43:25.456Z,8.07
2019-05-01T00:45:54.369Z,7.83
2019-05-01T00:48:23.281Z,7.73
2019-05-01T00:50:52.211Z,7.30
2019-05-01T00:53:20.921Z,7.73
2019-05-01T00:56:00.332Z,7.17
2019-05-01T00:58:33.625Z,7.47
2019-05-01T01:01:20.558Z,7.40
2019-05-01T01:03:49.393Z,7.70
2019-05-01T01:06:18.321Z,6.93
2019-05-01T01:08:47.145Z,6.80
2019-05-01T01:11:16.121Z,6.80
2019-05-01T01:13:44.910Z,6.90
2019-05-01T01:16:13.863Z,6.33
2019-05-01T01:18:42.781Z,7.40
2019-05-01T01:21:11.670Z,7.57
2019-05-01T01:23:40.636Z,7.27
2019-05-01T01:26:09.813Z,6.77
2019-05-01T01:28:38.622Z,6.37
2019-05-01T01:31:07.602Z,7.03
2019-05-01T01:33:36.491Z,7.23
2019-05-01T01:36:05.494Z,7.20
2019-05-01T01:38:34.268Z,7.03
2019-05-01T01:41:03.271Z,6.87
2019-05-01T01:43:36.491Z,6.90
2019-05-01T01:46:22.340Z,7.20
2019-05-01T01:48:51.343Z,7.07
2019-05-01T01:51:20.716Z,6.83
2019-05-01T01:53:51.598Z,7.40
2019-05-01T01:56:20.636Z,7.00
2019-05-01T01:58:50.258Z,6.97
2019-05-01T02:01:37.032Z,7.50
2019-05-01T02:04:19.541Z,7.20
2019-05-01T02:06:50.302Z,6.93
2019-05-01T02:09:19.207Z,7.47
2019-05-01T02:11:48.796Z,6.80
2019-05-01T02:14:17.552Z,6.67
2019-05-01T02:16:46.605Z,7.27
2019-05-01T02:19:15.680Z,6.93
2019-05-01T02:21:44.451Z,7.83
2019-05-01T02:24:13.361Z,7.67
2019-05-01T02:26:46.732Z,8.03
2019-05-01T02:29:26.481Z,8.23
2019-05-01T02:31:56.805Z,8.43
2019-05-01T02:34:27.143Z,8.03
2019-05-01T02:36:58.287Z,8.17
2019-05-01T02:39:28.888Z,8.80
2019-05-01T02:41:59.978Z,8.90
2019-05-01T02:44:31.991Z,10.57
2019-05-01T02:47:03.748Z,8.77
2019-05-01T02:49:41.455Z,9.07
2019-05-01T02:52:12.319Z,8.87
2019-05-01T02:54:44.297Z,9.80
2019-05-01T02:57:15.907Z,10.53
2019-05-01T02:59:47.737Z,9.33
2019-05-01T03:02:17.583Z,10.20
2019-05-01T03:04:47.031Z,10.33
2019-05-01T03:07:17.246Z,10.07
2019-05-01T03:09:46.869Z,10.63
2019-05-01T03:12:18.331Z,9.93
2019-05-01T03:14:49.705Z,10.60
2019-05-01T03:17:37.318Z,9.33
2019-05-01T03:20:14.718Z,11.13
2019-05-01T03:22:45.399Z,9.93
2019-05-01T03:25:14.646Z,10.30
2019-05-01T03:27:44.336Z,10.57
2019-05-01T03:30:13.293Z,9.33
2019-05-01T03:32:42.013Z,10.43
2019-05-01T03:35:11.329Z,10.13
2019-05-01T03:37:40.670Z,9.93
2019-05-01T03:40:12.278Z,10.13
2019-05-01T03:42:40.897Z,9.03
2019-05-01T03:45:10.189Z,9.87
2019-05-01T03:47:39.342Z,11.23
2019-05-01T03:50:08.228Z,10.57
2019-05-01T03:52:37.181Z,10.83
2019-05-01T03:55:06.448Z,10.77
2019-05-01T03:57:35.305Z,9.83
2019-05-01T04:00:10.026Z,10.67
2019-05-01T04:02:52.934Z,11.10
2019-05-01T04:05:21.834Z,10.50
2019-05-01T04:07:50.914Z,10.00
2019-05-01T04:10:19.941Z,11.47
2019-05-01T04:12:48.987Z,10.27
2019-05-01T04:15:17.922Z,10.67
2019-05-01T04:17:48.620Z,10.00
2019-05-01T04:20:17.839Z,9.30
2019-05-01T04:22:46.539Z,9.37
2019-05-01T04:25:15.720Z,9.87
2019-05-01T04:27:46.531Z,10.03
2019-05-01T04:30:20.051Z,10.33
2019-05-01T04:32:53.226Z,9.77
2019-05-01T04:35:29.097Z,9.57
2019-05-01T04:37:58.045Z,10.10
2019-05-01T04:40:27.000Z,9.33
2019-05-01T04:42:56.142Z,10.20
2019-05-01T04:45:25.470Z,9.17
2019-05-01T04:47:54.733Z,10.50
2019-05-01T04:50:23.624Z,9.60
2019-05-01T04:52:52.498Z,10.10
2019-05-01T04:55:23.618Z,9.70
2019-05-01T04:57:52.236Z,10.07
2019-05-01T05:00:21.282Z,9.83
2019-05-01T05:03:04.041Z,9.77
2019-05-01T05:05:22.672Z,9.57
2019-05-01T05:07:51.573Z,9.83
2019-05-01T05:10:20.798Z,9.90
2019-05-01T05:12:53.962Z,10.50
2019-05-01T05:15:41.838Z,10.60
2019-05-01T05:18:11.127Z,9.87
2019-05-01T05:20:40.286Z,9.77
2019-05-01T05:23:10.378Z,9.70
2019-05-01T05:25:39.450Z,9.73
2019-05-01T05:28:08.587Z,9.70
2019-05-01T05:30:38.016Z,9.70
2019-05-01T05:33:18.114Z,8.90
2019-05-01T05:35:42.020Z,8.23
2019-05-01T05:38:13.417Z,9.33
2019-05-01T05:40:44.198Z,9.70
2019-05-01T05:43:13.427Z,9.27
2019-05-01T05:45:42.518Z,9.33
2019-05-01T05:48:11.494Z,8.63
2019-05-01T05:51:01.862Z,8.70
2019-05-01T05:53:35.166Z,8.87
2019-05-01T05:56:11.419Z,9.30
2019-05-01T05:58:48.813Z,8.67
2019-05-01T06:01:20.582Z,9.60
2019-05-01T06:03:53.155Z,9.30
2019-05-01T06:06:41.694Z,8.73
2019-05-01T06:09:13.928Z,8.83
2019-05-01T06:11:59.847Z,9.40
2019-05-01T06:14:41.159Z,9.40
2019-05-01T06:17:11.957Z,8.53
2019-05-01T06:19:45.984Z,9.50
2019-05-01T06:22:18.015Z,10.27
2019-05-01T06:25:04.022Z,8.83
2019-05-01T06:27:33.347Z,9.13
2019-05-01T06:30:02.306Z,9.40
2019-05-01T06:32:33.492Z,9.50
2019-05-01T06:35:03.151Z,9.77
2019-05-01T06:37:35.109Z,9.10
2019-05-01T06:40:05.555Z,9.30
2019-05-01T06:42:34.522Z,8.87
2019-05-01T06:45:05.067Z,8.77
2019-05-01T06:47:38.131Z,8.17
2019-05-01T06:50:11.817Z,7.90
2019-05-01T06:52:41.236Z,8.17
2019-05-01T06:55:10.306Z,8.03
2019-05-01T06:57:43.698Z,8.40
2019-05-01T07:00:12.006Z,7.70
2019-05-01T07:02:41.920Z,7.03
2019-05-01T07:05:14.542Z,6.90
2019-05-01T07:07:43.388Z,7.40
2019-05-01T07:10:13.389Z,7.40
2019-05-01T07:12:42.494Z,6.93
2019-05-01T07:15:12.105Z,6.63
2019-05-01T07:17:43.857Z,6.83
2019-05-01T07:20:16.775Z,6.17
2019-05-01T07:22:47.080Z,6.47
2019-05-01T07:25:16.051Z,6.60
2019-05-01T07:27:45.189Z,6.70
2019-05-01T07:30:19.719Z,6.20
2019-05-01T07:32:48.222Z,5.87
2019-05-01T07:35:17.027Z,5.93
2019-05-01T07:37:46.340Z,6.40
2019-05-01T07:40:15.730Z,6.43
2019-05-01T07:42:51.977Z,6.30
2019-05-01T07:45:22.795Z,6.67
2019-05-01T07:47:53.430Z,5.70
2019-05-01T07:50:23.882Z,6.60
2019-05-01T07:52:54.049Z,6.07
2019-05-01T07:55:38.355Z,6.33
2019-05-01T07:58:10.318Z,6.00
2019-05-01T08:00:46.859Z,5.93
2019-05-01T08:03:15.675Z,6.77
2019-05-01T08:05:45.436Z,6.60
2019-05-01T08:08:14.803Z,6.90
2019-05-01T08:10:43.644Z,7.27
2019-05-01T08:13:12.527Z,6.77
2019-05-01T08:15:41.539Z,6.03
2019-05-01T08:18:27.938Z,5.67
2019-05-01T08:21:15.662Z,5.47
2019-05-01T08:23:47.193Z,5.60
2019-05-01T08:26:16.033Z,5.50
2019-05-01T08:29:06.835Z,5.10
2019-05-01T08:31:35.269Z,5.60
2019-05-01T08:34:11.951Z,6.03
2019-05-01T08:36:42.648Z,5.67
2019-05-01T08:39:13.758Z,5.33
2019-05-01T08:41:41.473Z,5.40
2019-05-01T08:44:10.664Z,5.83
2019-05-01T08:46:41.195Z,6.00
2019-05-01T08:49:28.099Z,5.80
2019-05-01T08:51:56.785Z,6.65
2019-05-01T08:54:28.885Z,5.97
2019-05-01T08:56:58.059Z,5.78
2019-05-01T08:59:26.855Z,5.20
2019-05-01T09:02:08.831Z,5.83
2019-05-01T09:04:30.349Z,6.00
2019-05-01T09:06:56.813Z,6.65
2019-05-01T09:09:26.005Z,5.12
2019-05-01T09:11:54.979Z,4.53
2019-05-01T09:14:23.768Z,4.22
2019-05-01T09:16:52.735Z,4.33
2019-05-01T09:19:21.717Z,4.78
2019-05-01T09:21:50.755Z,4.10
2019-05-01T09:24:23.174Z,4.65
2019-05-01T09:26:58.325Z,5.03
2019-05-01T09:29:29.069Z,4.90
2019-05-01T09:31:58.150Z,4.50
2019-05-01T09:34:27.415Z,4.92
2019-05-01T09:36:56.342Z,5.72
2019-05-01T09:39:25.660Z,5.83
2019-05-01T09:41:54.548Z,6.37
2019-05-01T09:44:23.469Z,6.00
2019-05-01T09:46:52.416Z,6.90
2019-05-01T09:49:22.019Z,5.53
2019-05-01T09:51:52.646Z,6.03
2019-05-01T09:54:23.112Z,8.08
2019-05-01T09:56:52.154Z,3.72
2019-05-01T09:59:21.153Z,3.02
2019-05-01T10:01:50.034Z,3.83
2019-05-01T10:04:18.837Z,4.00
2019-05-01T10:06:51.748Z,3.77
2019-05-01T10:09:18.167Z,4.40
2019-05-01T10:11:47.226Z,4.75
2019-05-01T10:14:15.905Z,4.00
2019-05-01T10:16:44.698Z,4.00
2019-05-01T10:19:13.473Z,3.80
2019-05-01T10:21:42.171Z,3.70
2019-05-01T10:24:11.043Z,3.73
2019-05-01T10:26:41.413Z,3.47
2019-05-01T10:29:11.802Z,3.63
2019-05-01T10:32:00.239Z,3.80
2019-05-01T10:34:33.159Z,4.03
2019-05-01T10:37:02.271Z,4.40
2019-05-01T10:39:31.220Z,5.03
2019-05-01T10:41:59.994Z,5.57
2019-05-01T10:44:28.688Z,5.10
2019-05-01T10:46:57.589Z,5.00
2019-05-01T10:49:26.318Z,5.27
2019-05-01T10:51:55.242Z,5.10
2019-05-01T10:54:24.153Z,6.10
2019-05-01T10:56:52.917Z,4.83
2019-05-01T10:59:21.924Z,4.70
2019-05-01T11:01:52.690Z,4.93
2019-05-01T11:04:21.858Z,5.33
2019-05-01T11:06:50.784Z,5.97
2019-05-01T11:09:19.826Z,5.70
2019-05-01T11:11:48.701Z,6.50
2019-05-01T11:14:17.498Z,6.17
2019-05-01T11:16:46.980Z,7.63
2019-05-01T11:19:15.907Z,7.53
2019-05-01T11:21:44.659Z,9.30
2019-05-01T11:24:13.658Z,8.23
2019-05-01T11:26:42.554Z,8.13
2019-05-01T11:29:11.400Z,8.47
2019-05-01T11:31:44.997Z,8.10
2019-05-01T11:34:27.867Z,9.03
2019-05-01T11:36:58.459Z,9.13
2019-05-01T11:39:35.900Z,8.90
2019-05-01T11:42:13.148Z,9.23
2019-05-01T11:44:41.931Z,10.13
2019-05-01T11:47:10.833Z,9.97
2019-05-01T11:49:39.818Z,9.83
2019-05-01T11:52:08.507Z,11.17
2019-05-01T11:54:37.405Z,11.17
2019-05-01T11:57:06.385Z,11.57
2019-05-01T11:59:35.177Z,11.23
2019-05-01T12:02:04.355Z,10.47
2019-05-01T12:04:33.127Z,10.50
2019-05-01T12:07:02.153Z,9.90
2019-05-01T12:09:30.989Z,10.83
2019-05-01T12:12:01.585Z,10.20
2019-05-01T12:14:30.401Z,13.80
2019-05-01T12:17:01.062Z,13.47
2019-05-01T12:19:31.507Z,14.30
2019-05-01T12:22:00.482Z,12.93
2019-05-01T12:24:29.318Z,14.50
2019-05-01T12:26:58.464Z,18.00
2019-05-01T12:29:27.272Z,22.80
2019-05-01T12:31:55.939Z,21.00
2019-05-01T12:34:24.801Z,22.17
2019-05-01T12:36:55.377Z,24.10
2019-05-01T12:39:24.424Z,22.90
2019-05-01T12:42:03.063Z,21.83
2019-05-01T12:44:32.160Z,28.07
2019-05-01T12:47:05.338Z,28.77
2019-05-01T12:49:34.442Z,28.67
2019-05-01T12:52:10.632Z,26.80
2019-05-01T12:54:52.391Z,27.67
2019-05-01T12:57:21.395Z,25.77
2019-05-01T12:59:50.284Z,24.10
2019-05-01T13:02:19.138Z,24.30
2019-05-01T13:04:48.092Z,23.83
2019-05-01T13:07:17.434Z,25.57
2019-05-01T13:09:46.368Z,23.37
2019-05-01T13:12:15.319Z,26.23
2019-05-01T13:14:44.309Z,24.80
2019-05-01T13:17:13.459Z,25.20
2019-05-01T13:19:42.342Z,22.10
2019-05-01T13:22:11.477Z,22.57
2019-05-01T13:24:41.924Z,22.87
2019-05-01T13:27:18.147Z,24.03
2019-05-01T13:29:48.596Z,24.93
2019-05-01T13:32:37.344Z,25.23
2019-05-01T13:35:07.012Z,26.47
2019-05-01T13:37:36.181Z,24.87
2019-05-01T13:40:08.395Z,23.53
2019-05-01T13:42:37.441Z,24.60
2019-05-01T13:45:08.561Z,23.43
2019-05-01T13:47:37.358Z,27.20
2019-05-01T13:50:07.692Z,25.63
2019-05-01T13:52:36.399Z,24.40
2019-05-01T13:55:06.422Z,24.07
2019-05-01T13:57:35.242Z,24.23
2019-05-01T14:00:08.114Z,27.37
2019-05-01T14:02:37.017Z,27.50
2019-05-01T14:05:06.454Z,28.30
2019-05-01T14:07:35.557Z,29.23
2019-05-01T14:10:05.343Z,31.63
2019-05-01T14:12:34.106Z,29.63
2019-05-01T14:15:03.093Z,30.67
2019-05-01T14:17:32.106Z,28.07
2019-05-01T14:20:19.212Z,30.90
2019-05-01T14:22:49.736Z,29.60
2019-05-01T14:25:18.650Z,27.77
2019-05-01T14:27:47.656Z,28.27
2019-05-01T14:30:16.902Z,30.87
2019-05-01T14:32:45.583Z,30.80
2019-05-01T14:35:16.336Z,30.97
2019-05-01T14:37:45.175Z,31.33
2019-05-01T14:40:14.536Z,31.80
2019-05-01T14:42:43.415Z,32.53
2019-05-01T14:45:12.620Z,31.27
2019-05-01T14:47:41.758Z,28.60
2019-05-01T14:50:11.029Z,28.20
2019-05-01T14:52:39.818Z,27.63
2019-05-01T14:55:09.123Z,29.03
2019-05-01T14:57:38.085Z,29.87
2019-05-01T15:00:08.328Z,30.13
2019-05-01T15:02:37.161Z,31.37
2019-05-01T15:05:07.584Z,30.07
2019-05-01T15:07:43.197Z,30.37
2019-05-01T15:10:07.312Z,31.13
2019-05-01T15:12:36.228Z,33.17
2019-05-01T15:15:19.959Z,33.23
2019-05-01T15:18:06.897Z,33.00
2019-05-01T15:20:35.941Z,34.63
2019-05-01T15:23:05.084Z,32.13
2019-05-01T15:25:34.337Z,31.57
2019-05-01T15:28:03.215Z,32.40
2019-05-01T15:30:32.141Z,28.77
2019-05-01T15:33:01.005Z,29.60
2019-05-01T15:35:29.880Z,30.10
2019-05-01T15:37:58.741Z,29.00
2019-05-01T15:40:45.791Z,32.30
2019-05-01T15:43:31.271Z,30.37
2019-05-01T15:46:01.194Z,31.43
2019-05-01T15:48:30.069Z,31.10
2019-05-01T15:50:58.743Z,31.07
2019-05-01T15:53:27.628Z,31.37
2019-05-01T15:55:56.617Z,31.07
2019-05-01T15:58:25.401Z,31.53
2019-05-01T16:00:54.202Z,30.33
2019-05-01T16:03:23.053Z,29.80
2019-05-01T16:05:52.021Z,29.27
2019-05-01T16:08:21.154Z,30.80
2019-05-01T16:11:06.572Z,31.27
2019-05-01T16:13:35.547Z,30.93
2019-05-01T16:16:04.524Z,30.83
2019-05-01T16:18:33.406Z,30.83
2019-05-01T16:21:02.722Z,31.17
2019-05-01T16:23:31.596Z,32.80
2019-05-01T16:26:00.495Z,32.30
2019-05-01T16:28:29.487Z,31.63
2019-05-01T16:30:58.482Z,31.23
2019-05-01T16:33:27.272Z,32.67
2019-05-01T16:35:56.070Z,32.70
2019-05-01T16:38:26.578Z,31.27
2019-05-01T16:41:09.481Z,31.73
2019-05-01T16:43:38.414Z,32.30
2019-05-01T16:46:07.462Z,31.23
2019-05-01T16:48:36.979Z,31.30
2019-05-01T16:51:06.098Z,30.63
2019-05-01T16:53:35.153Z,31.20
2019-05-01T16:56:04.368Z,30.67
2019-05-01T16:58:33.557Z,32.63
2019-05-01T17:01:06.635Z,31.50
2019-05-01T17:03:43.639Z,31.57
2019-05-01T17:06:26.127Z,32.70
2019-05-01T17:08:56.551Z,31.93
2019-05-01T17:11:33.339Z,30.73
2019-05-01T17:14:02.620Z,31.53
2019-05-01T17:16:31.509Z,31.00
2019-05-01T17:19:00.176Z,31.90
2019-05-01T17:21:29.184Z,31.60
2019-05-01T17:23:58.161Z,31.30
2019-05-01T17:26:26.973Z,32.47
2019-05-01T17:28:55.839Z,31.53
2019-05-01T17:31:26.570Z,31.67
2019-05-01T17:33:56.730Z,32.93
2019-05-01T17:36:25.818Z,31.53
2019-05-01T17:38:54.676Z,32.80
2019-05-01T17:41:27.160Z,31.63
2019-05-01T17:43:56.574Z,30.33
2019-05-01T17:46:24.659Z,31.93
2019-05-01T17:48:53.609Z,32.30
2019-05-01T17:51:22.489Z,31.97
2019-05-01T17:53:52.042Z,32.27
2019-05-01T17:56:27.533Z,31.77
2019-05-01T17:58:51.270Z,30.73
2019-05-01T18:01:27.563Z,32.00
2019-05-01T18:03:59.571Z,31.33
2019-05-01T18:06:33.149Z,31.70
2019-05-01T18:09:03.129Z,32.87
2019-05-01T18:11:32.563Z,32.47
2019-05-01T18:14:01.347Z,31.30
2019-05-01T18:16:30.182Z,32.40
2019-05-01T18:18:59.234Z,32.17
2019-05-01T18:21:28.204Z,32.17
2019-05-01T18:24:01.358Z,32.43
2019-05-01T18:26:38.822Z,33.80
2019-05-01T18:29:12.882Z,33.83
2019-05-01T18:31:41.914Z,34.07
2019-05-01T18:34:10.964Z,35.07
2019-05-01T18:36:44.356Z,33.33
2019-05-01T18:39:16.663Z,34.17
2019-05-01T18:41:47.464Z,34.50
2019-05-01T18:44:16.400Z,33.20
2019-05-01T18:46:45.543Z,34.83
2019-05-01T18:49:14.433Z,33.90
2019-05-01T18:51:43.472Z,32.80
2019-05-01T18:54:12.516Z,35.30
2019-05-01T18:56:41.300Z,34.57
2019-05-01T18:59:10.511Z,34.43
2019-05-01T19:01:39.514Z,34.77
2019-05-01T19:04:08.484Z,35.13
2019-05-01T19:06:41.286Z,34.20
2019-05-01T19:09:15.199Z,35.50
2019-05-01T19:11:40.023Z,38.93
2019-05-01T19:14:09.586Z,36.97
2019-05-01T19:16:40.123Z,35.40
2019-05-01T19:19:09.093Z,34.70
2019-05-01T19:21:41.859Z,34.10
2019-05-01T19:24:09.317Z,33.57
2019-05-01T19:26:42.175Z,33.87
2019-05-01T19:29:08.730Z,33.43
2019-05-01T19:31:37.871Z,33.63
2019-05-01T19:34:07.057Z,32.27
2019-05-01T19:36:40.222Z,33.50
2019-05-01T19:39:11.625Z,32.23
2019-05-01T19:41:38.497Z,33.03
2019-05-01T19:44:07.297Z,32.33
2019-05-01T19:46:36.256Z,32.60
2019-05-01T19:49:05.458Z,32.00
2019-05-01T19:51:34.235Z,31.03
2019-05-01T19:54:03.255Z,29.90
2019-05-01T19:56:32.553Z,29.17
2019-05-01T19:59:01.446Z,31.40
2019-05-01T20:01:30.667Z,30.47
2019-05-01T20:03:59.491Z,30.43
2019-05-01T20:06:28.593Z,30.80
2019-05-01T20:08:57.727Z,30.27
2019-05-01T20:11:26.588Z,30.97
2019-05-01T20:13:55.503Z,29.80
2019-05-01T20:16:24.385Z,29.27
2019-05-01T20:18:53.259Z,30.70
2019-05-01T20:21:22.372Z,28.03
2019-05-01T20:23:51.242Z,29.13
2019-05-01T20:26:19.921Z,29.90
2019-05-01T20:28:48.810Z,28.83
2019-05-01T20:31:18.490Z,27.87
2019-05-01T20:33:48.353Z,27.93
2019-05-01T20:36:17.132Z,27.77
2019-05-01T20:38:45.989Z,27.50
2019-05-01T20:41:15.846Z,26.87
2019-05-01T20:43:45.475Z,27.87
2019-05-01T20:46:14.508Z,26.87
2019-05-01T20:48:43.410Z,26.33
2019-05-01T20:51:12.123Z,26.97
2019-05-01T20:53:41.131Z,27.30
2019-05-01T20:56:11.730Z,26.70
2019-05-01T20:58:40.638Z,26.77
2019-05-01T21:01:09.694Z,25.70
2019-05-01T21:03:40.118Z,27.13
2019-05-01T21:06:19.747Z,26.53
2019-05-01T21:08:56.235Z,26.60
2019-05-01T21:11:32.473Z,27.07
2019-05-01T21:14:17.017Z,27.13
2019-05-01T21:16:33.044Z,28.20
2019-05-01T21:19:02.014Z,26.07
2019-05-01T21:21:30.904Z,27.13
2019-05-01T21:23:59.664Z,27.33
2019-05-01T21:26:28.873Z,26.47
2019-05-01T21:28:58.017Z,28.53
2019-05-01T21:31:26.964Z,27.80
2019-05-01T21:33:55.831Z,28.80
2019-05-01T21:36:24.965Z,29.23
2019-05-01T21:38:53.857Z,30.03
2019-05-01T21:41:22.792Z,29.43
2019-05-01T21:43:52.939Z,31.97
2019-05-01T21:46:22.711Z,27.50
2019-05-01T21:48:53.462Z,26.67
2019-05-01T21:51:22.724Z,27.83
2019-05-01T21:53:52.879Z,26.67
2019-05-01T21:56:21.985Z,28.43
2019-05-01T21:58:50.913Z,31.27
2019-05-01T22:01:19.968Z,29.57
2019-05-01T22:03:52.606Z,28.67
2019-05-01T22:06:19.278Z,28.00
2019-05-01T22:08:48.281Z,27.07
2019-05-01T22:11:17.467Z,26.93
2019-05-01T22:13:46.609Z,28.30
2019-05-01T22:16:26.014Z,27.27
2019-05-01T22:19:05.738Z,28.03
2019-05-01T22:21:36.403Z,26.90
2019-05-01T22:24:23.993Z,27.83
2019-05-01T22:27:03.150Z,28.33
2019-05-01T22:29:42.687Z,29.03
2019-05-01T22:32:13.154Z,27.40
2019-05-01T22:34:46.788Z,28.70
2019-05-01T22:37:15.625Z,29.03
2019-05-01T22:39:46.310Z,27.63
2019-05-01T22:42:15.193Z,27.23
2019-05-01T22:44:43.980Z,27.10
2019-05-01T22:47:15.011Z,27.73
2019-05-01T22:49:43.393Z,28.07
2019-05-01T22:52:12.304Z,28.00
2019-05-01T22:54:44.999Z,28.50
2019-05-01T22:57:11.405Z,28.37
2019-05-01T22:59:40.729Z,27.50
2019-05-01T23:02:28.457Z,26.30
2019-05-01T23:04:57.124Z,26.70
2019-05-01T23:07:26.195Z,25.43
2019-05-01T23:09:59.194Z,26.67
2019-05-01T23:12:25.972Z,25.90
2019-05-01T23:14:55.096Z,27.90
2019-05-01T23:17:28.501Z,25.97
2019-05-01T23:19:59.060Z,26.80
2019-05-01T23:22:27.918Z,25.20
2019-05-01T23:24:56.913Z,25.67
2019-05-01T23:27:29.208Z,25.27
2019-05-01T23:29:56.321Z,25.53
2019-05-01T23:32:25.316Z,26.13
2019-05-01T23:34:54.309Z,24.63
2019-05-01T23:37:25.924Z,24.57
2019-05-01T23:39:53.722Z,24.90
2019-05-01T23:42:22.722Z,24.00
2019-05-01T23:44:51.455Z,22.03
2019-05-01T23:47:20.514Z,23.07
2019-05-01T23:49:52.555Z,21.00
2019-05-01T23:52:20.211Z,21.77
2019-05-01T23:54:49.204Z,22.10
2019-05-01T23:57:18.841Z,22.27
2019-05-01T23:59:48.412Z,21.33
